createdAt,value
2019-01-30T00:00:45.965Z,26.61
2019-01-30T00:02:38.922Z,26.61
2019-01-30T00:03:38.944Z,26.61
2019-01-30T00:05:31.889Z,26.51
2019-01-30T00:06:31.921Z,26.61
2019-01-30T00:08:24.872Z,26.90
2019-01-30T00:09:24.895Z,26.90
2019-01-30T00:11:17.847Z,26.61
2019-01-30T00:12:17.865Z,26.61
2019-01-30T00:14:10.819Z,26.22
2019-01-30T00:15:10.834Z,26.61
2019-01-30T00:17:03.788Z,26.32
2019-01-30T00:18:03.806Z,26.80
2019-01-30T00:19:56.755Z,26.51
2019-01-30T00:20:56.781Z,26.70
2019-01-30T00:22:49.736Z,26.32
2019-01-30T00:23:49.758Z,26.51
2019-01-30T00:25:42.704Z,26.61
2019-01-30T00:26:42.733Z,26.59
2019-01-30T00:28:35.685Z,26.42
2019-01-30T00:29:35.702Z,26.31
2019-01-30T00:31:28.648Z,26.40
2019-01-30T00:32:28.679Z,26.98
2019-01-30T00:34:21.632Z,27.08
2019-01-30T00:35:21.648Z,26.70
2019-01-30T00:37:14.602Z,26.69
2019-01-30T00:38:14.619Z,26.42
2019-01-30T00:40:07.561Z,26.79
2019-01-30T00:41:07.589Z,27.17
2019-01-30T00:43:00.544Z,26.98
2019-01-30T00:44:00.559Z,26.69
2019-01-30T00:45:53.529Z,26.89
2019-01-30T00:46:53.536Z,26.79
2019-01-30T00:48:46.499Z,26.89
2019-01-30T00:49:46.512Z,27.17
2019-01-30T00:51:39.450Z,27.17
2019-01-30T00:52:39.479Z,27.08
2019-01-30T00:54:32.498Z,26.89
2019-01-30T00:55:32.450Z,26.98
2019-01-30T00:57:25.403Z,27.17
2019-01-30T00:58:25.420Z,26.98
2019-01-30T01:00:18.363Z,27.08
2019-01-30T01:01:18.394Z,26.89
2019-01-30T01:03:11.347Z,27.08
2019-01-30T01:04:11.364Z,26.98
2019-01-30T01:06:04.308Z,26.89
2019-01-30T01:07:04.336Z,26.98
2019-01-30T01:08:57.289Z,27.08
2019-01-30T01:09:57.308Z,26.98
2019-01-30T01:11:50.251Z,27.27
2019-01-30T01:12:50.279Z,27.08
2019-01-30T01:14:43.234Z,26.98
2019-01-30T01:15:43.253Z,27.27
2019-01-30T01:17:36.205Z,27.08
2019-01-30T01:18:36.225Z,27.26
2019-01-30T01:20:29.165Z,27.27
2019-01-30T01:21:29.193Z,27.17
2019-01-30T01:23:22.148Z,27.17
2019-01-30T01:24:22.166Z,27.37
2019-01-30T01:26:15.109Z,27.27
2019-01-30T01:27:15.138Z,27.27
2019-01-30T01:29:08.097Z,27.55
2019-01-30T01:30:08.111Z,27.27
2019-01-30T01:32:01.054Z,27.27
2019-01-30T01:33:01.083Z,27.27
2019-01-30T01:34:54.034Z,27.16
2019-01-30T01:35:54.050Z,27.26
2019-01-30T01:37:47.007Z,27.17
2019-01-30T01:38:47.022Z,27.06
2019-01-30T01:40:39.967Z,27.16
2019-01-30T01:41:39.997Z,27.55
2019-01-30T01:43:32.952Z,27.45
2019-01-30T01:44:32.972Z,27.64
2019-01-30T01:46:25.914Z,27.64
2019-01-30T01:47:25.947Z,27.64
2019-01-30T01:49:18.900Z,27.64
2019-01-30T01:50:18.913Z,27.55
2019-01-30T01:52:11.860Z,27.35
2019-01-30T01:53:11.919Z,27.16
2019-01-30T01:55:04.859Z,27.06
2019-01-30T01:56:04.856Z,27.64
2019-01-30T01:57:57.814Z,27.64
2019-01-30T01:58:57.833Z,27.55
2019-01-30T02:00:50.776Z,27.55
2019-01-30T02:01:50.805Z,27.64
2019-01-30T02:03:43.769Z,27.55
2019-01-30T02:04:43.786Z,27.74
2019-01-30T02:06:36.729Z,27.55
2019-01-30T02:07:36.758Z,27.74
2019-01-30T02:09:29.716Z,27.35
2019-01-30T02:10:29.731Z,27.16
2019-01-30T02:12:22.672Z,27.35
2019-01-30T02:13:22.700Z,27.16
2019-01-30T02:15:15.653Z,27.26
2019-01-30T02:16:15.671Z,27.16
2019-01-30T02:18:08.801Z,27.26
2019-01-30T02:19:08.639Z,27.26
2019-01-30T02:21:01.584Z,27.16
2019-01-30T02:22:01.609Z,27.26
2019-01-30T02:23:54.564Z,27.44
2019-01-30T02:24:54.579Z,27.45
2019-01-30T02:26:47.523Z,27.26
2019-01-30T02:27:47.549Z,27.26
2019-01-30T02:29:40.504Z,27.53
2019-01-30T02:30:47.664Z,27.64
2019-01-30T02:32:33.465Z,27.53
2019-01-30T02:33:33.495Z,27.74
2019-01-30T02:35:26.445Z,27.62
2019-01-30T02:36:26.461Z,27.53
2019-01-30T02:38:19.406Z,27.53
2019-01-30T02:39:19.528Z,27.62
2019-01-30T02:41:12.387Z,27.53
2019-01-30T02:42:12.406Z,27.72
2019-01-30T02:44:05.355Z,27.53
2019-01-30T02:45:05.376Z,27.53
2019-01-30T02:46:58.315Z,27.55
2019-01-30T02:47:58.347Z,27.55
2019-01-30T02:49:51.298Z,27.62
2019-01-30T02:50:51.320Z,27.45
2019-01-30T02:52:44.259Z,27.44
2019-01-30T02:53:44.286Z,27.53
2019-01-30T02:55:37.241Z,27.92
2019-01-30T02:56:37.264Z,27.62
2019-01-30T02:58:30.202Z,27.53
2019-01-30T02:59:30.230Z,27.53
2019-01-30T03:01:23.189Z,27.15
2019-01-30T03:02:23.200Z,27.62
2019-01-30T03:04:16.172Z,27.62
2019-01-30T03:05:16.173Z,27.62
2019-01-30T03:07:09.126Z,27.34
2019-01-30T03:08:09.146Z,27.15
2019-01-30T03:10:02.097Z,27.82
2019-01-30T03:11:02.114Z,28.20
2019-01-30T03:12:55.058Z,27.82
2019-01-30T03:13:55.083Z,27.92
2019-01-30T03:15:48.040Z,27.72
2019-01-30T03:16:48.061Z,27.92
2019-01-30T03:18:40.999Z,27.82
2019-01-30T03:19:41.029Z,27.62
2019-01-30T03:21:33.981Z,27.72
2019-01-30T03:22:34.001Z,27.82
2019-01-30T03:24:26.948Z,28.11
2019-01-30T03:25:26.977Z,28.11
2019-01-30T03:27:19.927Z,28.11
2019-01-30T03:28:19.941Z,27.82
2019-01-30T03:30:12.895Z,28.11
2019-01-30T03:31:17.877Z,27.82
2019-01-30T03:33:05.854Z,28.02
2019-01-30T03:34:05.885Z,27.92
2019-01-30T03:35:58.839Z,28.11
2019-01-30T03:36:58.857Z,28.11
2019-01-30T03:38:51.798Z,28.11
2019-01-30T03:39:51.826Z,28.11
2019-01-30T03:41:44.778Z,28.30
2019-01-30T03:42:44.795Z,28.29
2019-01-30T03:44:37.740Z,28.19
2019-01-30T03:45:37.769Z,28.00
2019-01-30T03:47:30.721Z,28.11
2019-01-30T03:48:30.737Z,28.29
2019-01-30T03:50:23.691Z,28.20
2019-01-30T03:51:23.705Z,28.20
2019-01-30T03:53:16.655Z,28.02
2019-01-30T03:54:16.673Z,28.02
2019-01-30T03:56:09.628Z,28.11
2019-01-30T03:57:09.643Z,28.29
2019-01-30T03:59:02.593Z,28.09
2019-01-30T04:00:02.618Z,28.00
2019-01-30T04:01:55.567Z,28.30
2019-01-30T04:02:55.586Z,28.40
2019-01-30T04:04:48.528Z,28.20
2019-01-30T04:05:48.718Z,28.09
2019-01-30T04:07:41.566Z,28.09
2019-01-30T04:08:41.523Z,28.20
2019-01-30T04:10:34.479Z,28.11
2019-01-30T04:11:34.495Z,28.11
2019-01-30T04:13:27.452Z,28.11
2019-01-30T04:14:27.473Z,28.20
2019-01-30T04:16:20.423Z,28.19
2019-01-30T04:17:20.442Z,28.09
2019-01-30T04:19:13.392Z,28.20
2019-01-30T04:20:13.417Z,28.19
2019-01-30T04:22:06.375Z,28.19
2019-01-30T04:23:06.382Z,28.19
2019-01-30T04:24:59.326Z,28.29
2019-01-30T04:25:59.363Z,28.38
2019-01-30T04:27:52.305Z,28.19
2019-01-30T04:28:52.324Z,28.19
2019-01-30T04:30:45.269Z,28.00
2019-01-30T04:31:45.293Z,28.09
2019-01-30T04:33:38.248Z,28.19
2019-01-30T04:34:38.262Z,28.29
2019-01-30T04:36:31.218Z,28.19
2019-01-30T04:37:31.232Z,28.09
2019-01-30T04:39:24.182Z,28.00
2019-01-30T04:40:24.206Z,28.38
2019-01-30T04:42:17.159Z,28.58
2019-01-30T04:43:17.234Z,28.67
2019-01-30T04:45:10.116Z,28.67
2019-01-30T04:46:10.143Z,28.38
2019-01-30T04:48:03.097Z,28.58
2019-01-30T04:49:03.113Z,28.48
2019-01-30T04:50:56.054Z,28.48
2019-01-30T04:51:56.084Z,28.19
2019-01-30T04:53:49.037Z,28.29
2019-01-30T04:54:49.053Z,28.48
2019-01-30T04:56:42.006Z,28.58
2019-01-30T04:57:42.029Z,28.67
2019-01-30T04:59:34.963Z,28.58
2019-01-30T05:00:34.989Z,28.58
2019-01-30T05:02:27.944Z,28.58
2019-01-30T05:03:27.960Z,28.48
2019-01-30T05:05:20.905Z,28.48
2019-01-30T05:06:20.934Z,28.19
2019-01-30T05:08:13.887Z,28.48
2019-01-30T05:09:13.906Z,28.38
2019-01-30T05:11:06.852Z,28.09
2019-01-30T05:12:06.883Z,28.00
2019-01-30T05:14:01.451Z,28.09
2019-01-30T05:14:59.873Z,28.11
2019-01-30T05:16:52.789Z,28.29
2019-01-30T05:17:52.820Z,28.02
2019-01-30T05:19:45.771Z,27.82
2019-01-30T05:20:45.804Z,28.09
2019-01-30T05:22:38.920Z,27.82
2019-01-30T05:23:38.762Z,28.02
2019-01-30T05:25:31.709Z,27.72
2019-01-30T05:26:31.738Z,27.92
2019-01-30T05:28:24.690Z,27.82
2019-01-30T05:29:24.708Z,27.72
2019-01-30T05:31:17.647Z,27.72
2019-01-30T05:32:17.674Z,27.72
2019-01-30T05:34:10.630Z,27.53
2019-01-30T05:35:10.648Z,27.62
2019-01-30T05:37:03.602Z,27.72
2019-01-30T05:38:03.623Z,27.53
2019-01-30T05:39:56.593Z,27.15
2019-01-30T05:40:56.603Z,27.62
2019-01-30T05:42:49.551Z,27.53
2019-01-30T05:43:49.571Z,27.15
2019-01-30T05:45:42.527Z,27.34
2019-01-30T05:46:42.546Z,27.24
2019-01-30T05:48:35.491Z,27.34
2019-01-30T05:49:35.515Z,27.74
2019-01-30T05:51:28.455Z,27.15
2019-01-30T05:52:28.484Z,27.05
2019-01-30T05:54:21.432Z,27.16
2019-01-30T05:55:21.450Z,27.53
2019-01-30T05:57:14.884Z,27.16
2019-01-30T05:58:14.912Z,27.44
2019-01-30T06:00:07.865Z,27.53
2019-01-30T06:01:07.882Z,27.45
2019-01-30T06:03:01.315Z,27.82
2019-01-30T06:04:01.341Z,27.93
2019-01-30T06:05:54.826Z,28.22
2019-01-30T06:06:54.836Z,28.30
2019-01-30T06:08:47.766Z,28.13
2019-01-30T06:09:47.787Z,28.13
2019-01-30T06:11:41.229Z,28.03
2019-01-30T06:12:41.259Z,28.13
2019-01-30T06:14:34.212Z,28.13
2019-01-30T06:15:34.225Z,28.13
2019-01-30T06:17:27.168Z,28.03
2019-01-30T06:18:27.198Z,28.13
2019-01-30T06:20:20.165Z,28.31
2019-01-30T06:21:20.165Z,28.22
2019-01-30T06:23:13.116Z,28.13
2019-01-30T06:24:13.140Z,28.13
2019-01-30T06:26:06.098Z,28.22
2019-01-30T06:27:06.117Z,28.31
2019-01-30T06:28:59.558Z,28.13
2019-01-30T06:29:59.579Z,28.31
2019-01-30T06:31:52.525Z,28.13
2019-01-30T06:32:52.547Z,28.13
2019-01-30T06:34:45.511Z,28.22
2019-01-30T06:35:45.521Z,28.31
2019-01-30T06:37:38.457Z,28.22
2019-01-30T06:38:38.487Z,28.13
2019-01-30T06:40:31.432Z,28.22
2019-01-30T06:41:31.454Z,27.83
2019-01-30T06:43:24.399Z,26.86
2019-01-30T06:44:24.424Z,26.87
2019-01-30T06:46:17.405Z,27.35
2019-01-30T06:47:17.394Z,26.97
2019-01-30T06:49:10.343Z,26.29
2019-01-30T06:50:10.370Z,26.58
2019-01-30T06:52:03.813Z,26.39
2019-01-30T06:53:03.832Z,26.20
2019-01-30T06:54:57.265Z,26.48
2019-01-30T06:55:57.294Z,26.10
2019-01-30T06:57:50.245Z,26.21
2019-01-30T06:58:50.260Z,26.31
2019-01-30T07:00:43.704Z,26.31
2019-01-30T07:01:43.722Z,26.02
2019-01-30T07:03:37.157Z,25.92
2019-01-30T07:04:37.206Z,26.02
2019-01-30T07:06:30.630Z,26.21
2019-01-30T07:07:30.648Z,25.92
2019-01-30T07:09:23.589Z,26.02
2019-01-30T07:10:23.617Z,26.02
2019-01-30T07:12:16.571Z,25.44
2019-01-30T07:13:16.585Z,25.63
2019-01-30T07:15:09.531Z,25.44
2019-01-30T07:16:09.558Z,25.54
2019-01-30T07:18:02.511Z,25.82
2019-01-30T07:19:02.526Z,25.15
2019-01-30T07:20:55.588Z,25.24
2019-01-30T07:21:55.495Z,25.24
2019-01-30T07:23:48.439Z,25.55
2019-01-30T07:24:48.464Z,25.55
2019-01-30T07:26:41.419Z,25.73
2019-01-30T07:27:41.434Z,25.26
2019-01-30T07:29:34.376Z,25.26
2019-01-30T07:30:34.404Z,25.45
2019-01-30T07:32:27.360Z,25.26
2019-01-30T07:33:27.376Z,25.35
2019-01-30T07:35:20.317Z,25.55
2019-01-30T07:36:20.344Z,25.26
2019-01-30T07:38:13.298Z,25.74
2019-01-30T07:39:13.316Z,25.55
2019-01-30T07:41:06.270Z,25.35
2019-01-30T07:42:06.286Z,25.35
2019-01-30T07:43:59.241Z,25.35
2019-01-30T07:44:59.261Z,25.26
2019-01-30T07:46:52.215Z,25.37
2019-01-30T07:47:52.236Z,25.35
2019-01-30T07:49:45.178Z,25.45
2019-01-30T07:50:45.206Z,25.26
2019-01-30T07:52:38.163Z,25.35
2019-01-30T07:53:38.181Z,25.35
2019-01-30T07:55:31.151Z,25.45
2019-01-30T07:56:31.154Z,25.46
2019-01-30T07:58:24.108Z,25.37
2019-01-30T07:59:24.130Z,25.46
2019-01-30T08:01:17.078Z,25.46
2019-01-30T08:02:17.166Z,25.46
2019-01-30T08:04:10.055Z,25.46
2019-01-30T08:05:10.071Z,25.37
2019-01-30T08:07:03.239Z,25.37
2019-01-30T08:08:03.157Z,25.27
2019-01-30T08:09:56.001Z,25.27
2019-01-30T08:10:56.028Z,25.27
2019-01-30T08:12:48.984Z,25.37
2019-01-30T08:13:48.999Z,25.37
2019-01-30T08:15:41.964Z,25.46
2019-01-30T08:16:41.987Z,25.55
2019-01-30T08:18:34.938Z,25.27
2019-01-30T08:19:34.956Z,25.37
2019-01-30T08:21:28.075Z,25.27
2019-01-30T08:22:27.931Z,25.27
2019-01-30T08:24:21.019Z,25.37
2019-01-30T08:25:21.131Z,25.37
2019-01-30T08:27:13.861Z,25.46
2019-01-30T08:28:15.944Z,25.27
2019-01-30T08:30:06.992Z,25.37
2019-01-30T08:31:07.268Z,25.46
2019-01-30T08:33:04.542Z,25.37
2019-01-30T08:33:59.836Z,25.37
2019-01-30T08:35:52.793Z,25.46
2019-01-30T08:36:52.822Z,25.46
2019-01-30T08:38:45.779Z,25.18
2019-01-30T08:39:45.796Z,25.27
2019-01-30T08:41:38.750Z,25.27
2019-01-30T08:42:38.777Z,25.18
2019-01-30T08:44:31.731Z,25.37
2019-01-30T08:45:31.746Z,25.37
2019-01-30T08:47:24.693Z,25.37
2019-01-30T08:48:27.539Z,25.27
2019-01-30T08:50:17.673Z,25.27
2019-01-30T08:51:17.693Z,25.66
2019-01-30T08:53:10.650Z,25.75
2019-01-30T08:54:10.666Z,25.75
2019-01-30T08:56:03.613Z,25.85
2019-01-30T08:57:03.641Z,25.85
2019-01-30T08:58:56.597Z,25.85
2019-01-30T08:59:56.613Z,25.56
2019-01-30T09:01:49.558Z,25.75
2019-01-30T09:02:49.586Z,25.95
2019-01-30T09:04:42.538Z,25.85
2019-01-30T09:05:42.559Z,25.95
2019-01-30T09:07:43.881Z,25.95
2019-01-30T09:08:35.536Z,25.95
2019-01-30T09:10:28.486Z,26.04
2019-01-30T09:11:28.506Z,26.04
2019-01-30T09:13:21.461Z,26.23
2019-01-30T09:14:21.483Z,25.95
2019-01-30T09:16:14.428Z,26.33
2019-01-30T09:17:14.457Z,26.14
2019-01-30T09:19:07.417Z,26.23
2019-01-30T09:20:07.436Z,26.04
2019-01-30T09:22:00.378Z,26.34
2019-01-30T09:23:00.410Z,25.95
2019-01-30T09:24:53.361Z,26.04
2019-01-30T09:25:53.383Z,26.06
2019-01-30T09:27:46.324Z,25.95
2019-01-30T09:28:46.353Z,25.95
2019-01-30T09:30:39.307Z,25.96
2019-01-30T09:31:39.325Z,25.95
2019-01-30T09:33:32.268Z,25.96
2019-01-30T09:34:32.351Z,25.95
2019-01-30T09:36:25.304Z,25.96
2019-01-30T09:37:27.279Z,26.34
2019-01-30T09:39:18.223Z,26.25
2019-01-30T09:40:18.239Z,26.15
2019-01-30T09:42:11.211Z,25.96
2019-01-30T09:43:11.212Z,25.96
2019-01-30T09:45:04.172Z,26.06
2019-01-30T09:46:04.187Z,26.34
2019-01-30T09:47:57.138Z,26.34
2019-01-30T09:48:57.161Z,26.15
2019-01-30T09:50:50.118Z,26.44
2019-01-30T09:51:50.135Z,26.25
2019-01-30T09:53:43.077Z,26.15
2019-01-30T09:54:43.153Z,26.15
2019-01-30T09:56:36.062Z,26.25
2019-01-30T09:57:36.080Z,26.15
2019-01-30T09:59:29.034Z,25.86
2019-01-30T10:00:29.051Z,25.57
2019-01-30T10:02:22.008Z,25.96
2019-01-30T10:03:22.034Z,25.96
2019-01-30T10:05:14.992Z,26.06
2019-01-30T10:06:15.013Z,25.86
2019-01-30T10:08:07.955Z,25.38
2019-01-30T10:09:07.980Z,25.28
2019-01-30T10:11:00.936Z,25.28
2019-01-30T10:12:00.957Z,25.38
2019-01-30T10:13:53.907Z,25.48
2019-01-30T10:14:53.932Z,25.28
2019-01-30T10:16:46.882Z,25.48
2019-01-30T10:17:46.903Z,25.38
2019-01-30T10:19:41.783Z,25.28
2019-01-30T10:20:39.876Z,25.38
2019-01-30T10:22:32.831Z,25.28
2019-01-30T10:23:32.849Z,25.38
2019-01-30T10:25:25.806Z,25.19
2019-01-30T10:26:25.825Z,25.48
2019-01-30T10:28:18.776Z,25.38
2019-01-30T10:29:18.797Z,25.38
2019-01-30T10:31:11.752Z,25.28
2019-01-30T10:32:11.770Z,25.48
2019-01-30T10:34:04.717Z,25.48
2019-01-30T10:35:04.748Z,25.38
2019-01-30T10:36:57.711Z,25.38
2019-01-30T10:37:57.724Z,25.28
2019-01-30T10:39:50.667Z,25.48
2019-01-30T10:40:50.696Z,25.28
2019-01-30T10:42:43.653Z,25.28
2019-01-30T10:43:43.671Z,25.19
2019-01-30T10:45:38.247Z,25.38
2019-01-30T10:46:36.648Z,25.28
2019-01-30T10:48:29.601Z,25.38
2019-01-30T10:49:29.622Z,25.28
2019-01-30T10:51:22.580Z,25.38
2019-01-30T10:52:22.596Z,25.28
2019-01-30T10:54:15.543Z,25.28
2019-01-30T10:55:15.575Z,25.38
2019-01-30T10:57:08.527Z,25.48
2019-01-30T10:58:08.547Z,25.38
2019-01-30T11:00:01.500Z,25.28
2019-01-30T11:01:01.529Z,25.28
2019-01-30T11:02:54.479Z,25.28
2019-01-30T11:03:57.324Z,25.28
2019-01-30T11:05:47.444Z,25.28
2019-01-30T11:06:47.475Z,25.38
2019-01-30T11:08:40.428Z,25.28
2019-01-30T11:09:40.448Z,25.28
2019-01-30T11:11:33.418Z,25.28
2019-01-30T11:12:33.422Z,25.28
2019-01-30T11:14:26.368Z,25.28
2019-01-30T11:15:26.400Z,25.38
2019-01-30T11:17:19.352Z,25.57
2019-01-30T11:18:19.375Z,25.38
2019-01-30T11:20:12.315Z,25.38
2019-01-30T11:21:12.342Z,25.38
2019-01-30T11:23:05.300Z,25.28
2019-01-30T11:24:05.319Z,25.38
2019-01-30T11:25:58.268Z,25.38
2019-01-30T11:26:58.295Z,25.19
2019-01-30T11:28:51.252Z,25.28
2019-01-30T11:29:51.273Z,25.67
2019-01-30T11:31:44.218Z,25.38
2019-01-30T11:32:44.244Z,25.38
2019-01-30T11:34:37.200Z,25.48
2019-01-30T11:35:37.218Z,25.48
2019-01-30T11:37:30.164Z,25.28
2019-01-30T11:38:30.194Z,25.38
2019-01-30T11:40:23.146Z,25.38
2019-01-30T11:41:23.162Z,25.38
2019-01-30T11:43:16.121Z,25.48
2019-01-30T11:44:16.141Z,25.38
2019-01-30T11:46:09.087Z,25.28
2019-01-30T11:47:09.116Z,25.28
2019-01-30T11:49:02.075Z,25.09
2019-01-30T11:50:02.098Z,25.28
2019-01-30T11:51:55.042Z,25.38
2019-01-30T11:52:55.071Z,25.48
2019-01-30T11:54:48.030Z,25.28
2019-01-30T11:55:48.042Z,25.28
2019-01-30T11:57:40.987Z,25.38
2019-01-30T11:58:41.019Z,25.28
2019-01-30T12:00:33.971Z,25.48
2019-01-30T12:01:33.991Z,25.38
2019-01-30T12:03:26.947Z,25.38
2019-01-30T12:04:26.966Z,25.20
2019-01-30T12:06:19.910Z,25.29
2019-01-30T12:07:19.941Z,25.19
2019-01-30T12:09:12.895Z,24.91
2019-01-30T12:10:12.916Z,24.81
2019-01-30T12:12:05.871Z,24.81
2019-01-30T12:13:05.897Z,24.81
2019-01-30T12:14:59.357Z,24.81
2019-01-30T12:15:59.375Z,25.01
2019-01-30T12:17:52.317Z,24.91
2019-01-30T12:18:52.348Z,24.81
2019-01-30T12:20:45.304Z,24.81
2019-01-30T12:21:45.327Z,24.52
2019-01-30T12:23:38.286Z,24.81
2019-01-30T12:24:38.303Z,24.81
2019-01-30T12:26:31.249Z,24.52
2019-01-30T12:27:31.280Z,24.72
2019-01-30T12:29:24.233Z,24.91
2019-01-30T12:30:24.249Z,24.62
2019-01-30T12:32:17.198Z,24.81
2019-01-30T12:33:17.225Z,24.72
2019-01-30T12:35:10.178Z,24.43
2019-01-30T12:36:10.200Z,24.33
2019-01-30T12:38:03.154Z,24.43
2019-01-30T12:39:03.179Z,24.33
2019-01-30T12:40:56.134Z,24.43
2019-01-30T12:41:56.154Z,24.52
2019-01-30T12:43:49.143Z,24.33
2019-01-30T12:44:49.134Z,24.33
2019-01-30T12:46:42.099Z,24.43
2019-01-30T12:47:42.104Z,24.14
2019-01-30T12:49:35.059Z,24.62
2019-01-30T12:50:35.080Z,24.43
2019-01-30T12:52:28.023Z,24.23
2019-01-30T12:53:28.055Z,24.43
2019-01-30T12:55:21.008Z,24.23
2019-01-30T12:56:21.031Z,24.43
2019-01-30T12:58:13.976Z,24.33
2019-01-30T12:59:14.007Z,24.52
2019-01-30T13:01:06.962Z,24.14
2019-01-30T13:02:06.976Z,24.52
2019-01-30T13:03:59.922Z,24.43
2019-01-30T13:04:59.953Z,24.23
2019-01-30T13:06:52.908Z,24.52
2019-01-30T13:07:52.929Z,24.43
2019-01-30T13:09:45.886Z,24.52
2019-01-30T13:10:45.905Z,24.23
2019-01-30T13:12:38.853Z,24.23
2019-01-30T13:13:38.882Z,24.14
2019-01-30T13:15:31.840Z,24.52
2019-01-30T13:16:31.858Z,24.52
2019-01-30T13:18:24.803Z,24.33
2019-01-30T13:19:24.833Z,24.81
2019-01-30T13:21:17.788Z,24.33
2019-01-30T13:22:17.807Z,24.62
2019-01-30T13:24:10.754Z,24.81
2019-01-30T13:25:10.784Z,24.72
2019-01-30T13:27:03.739Z,24.72
2019-01-30T13:28:03.760Z,24.72
2019-01-30T13:29:56.730Z,24.91
2019-01-30T13:30:56.733Z,24.81
2019-01-30T13:32:49.688Z,24.80
2019-01-30T13:33:49.713Z,24.71
2019-01-30T13:35:42.672Z,24.43
2019-01-30T13:36:42.693Z,24.14
2019-01-30T13:38:35.640Z,24.41
2019-01-30T13:39:35.668Z,24.03
2019-01-30T13:41:28.624Z,23.74
2019-01-30T13:42:28.643Z,23.93
2019-01-30T13:44:22.081Z,23.83
2019-01-30T13:45:22.107Z,24.22
2019-01-30T13:47:15.063Z,24.33
2019-01-30T13:48:15.104Z,24.32
2019-01-30T13:50:08.056Z,24.13
2019-01-30T13:51:08.057Z,24.22
2019-01-30T13:53:01.033Z,24.33
2019-01-30T13:54:01.032Z,24.41
2019-01-30T13:55:53.985Z,24.13
2019-01-30T13:56:54.034Z,24.32
2019-01-30T13:58:46.969Z,24.32
2019-01-30T13:59:46.979Z,24.41
2019-01-30T14:01:39.941Z,24.41
2019-01-30T14:02:39.969Z,24.51
2019-01-30T14:04:32.899Z,24.22
2019-01-30T14:05:32.929Z,24.22
2019-01-30T14:07:26.379Z,24.41
2019-01-30T14:08:26.428Z,24.51
2019-01-30T14:10:19.359Z,24.41
2019-01-30T14:11:19.442Z,24.41
2019-01-30T14:13:12.327Z,24.80
2019-01-30T14:14:12.372Z,24.51
2019-01-30T14:16:05.323Z,24.41
2019-01-30T14:17:05.338Z,24.80
2019-01-30T14:18:58.267Z,24.99
2019-01-30T14:19:58.296Z,24.99
2019-01-30T14:21:51.778Z,24.80
2019-01-30T14:22:51.785Z,24.90
2019-01-30T14:24:44.735Z,24.90
2019-01-30T14:25:44.730Z,24.99
2019-01-30T14:27:37.687Z,24.71
2019-01-30T14:28:37.713Z,25.09
2019-01-30T14:30:30.671Z,24.90
2019-01-30T14:31:30.684Z,24.90
2019-01-30T14:33:23.650Z,24.80
2019-01-30T14:34:23.688Z,24.71
2019-01-30T14:36:16.610Z,24.80
2019-01-30T14:37:16.660Z,24.80
2019-01-30T14:39:09.572Z,24.71
2019-01-30T14:40:09.616Z,24.71
2019-01-30T14:42:02.561Z,24.80
2019-01-30T14:43:02.604Z,24.71
2019-01-30T14:44:55.585Z,24.90
2019-01-30T14:45:55.565Z,24.90
2019-01-30T14:47:48.540Z,24.80
2019-01-30T14:48:48.548Z,24.90
2019-01-30T14:50:41.986Z,24.80
2019-01-30T14:51:42.006Z,24.90
2019-01-30T14:53:34.960Z,24.41
2019-01-30T14:54:34.975Z,24.22
2019-01-30T14:56:28.433Z,24.22
2019-01-30T14:57:28.453Z,24.41
2019-01-30T14:59:21.905Z,24.32
2019-01-30T15:00:21.917Z,24.41
2019-01-30T15:02:14.875Z,24.41
2019-01-30T15:03:14.887Z,24.22
2019-01-30T15:05:07.840Z,24.61
2019-01-30T15:06:07.866Z,24.52
2019-01-30T15:08:01.006Z,24.61
2019-01-30T15:09:00.839Z,24.71
2019-01-30T15:10:53.838Z,24.80
2019-01-30T15:11:53.837Z,25.09
2019-01-30T15:13:46.770Z,24.80
2019-01-30T15:14:46.786Z,24.80
2019-01-30T15:16:39.729Z,25.19
2019-01-30T15:17:39.783Z,24.90
2019-01-30T15:19:32.755Z,25.28
2019-01-30T15:20:32.730Z,25.38
2019-01-30T15:22:25.687Z,25.28
2019-01-30T15:23:25.703Z,25.19
2019-01-30T15:25:18.647Z,25.38
2019-01-30T15:26:18.672Z,25.38
2019-01-30T15:28:11.635Z,24.61
2019-01-30T15:29:11.649Z,23.93
2019-01-30T15:31:04.593Z,23.45
2019-01-30T15:32:04.625Z,23.65
2019-01-30T15:33:57.576Z,23.93
2019-01-30T15:34:57.598Z,23.93
2019-01-30T15:36:50.539Z,24.13
2019-01-30T15:37:50.568Z,24.03
2019-01-30T15:39:43.523Z,24.22
2019-01-30T15:40:43.547Z,24.11
2019-01-30T15:42:36.501Z,24.40
2019-01-30T15:43:36.521Z,24.50
2019-01-30T15:45:29.469Z,24.30
2019-01-30T15:46:29.497Z,24.41
2019-01-30T15:48:22.451Z,24.50
2019-01-30T15:49:22.527Z,24.21
2019-01-30T15:51:15.411Z,24.50
2019-01-30T15:52:15.439Z,24.88
2019-01-30T15:54:08.394Z,24.79
2019-01-30T15:55:08.419Z,24.79
2019-01-30T15:57:01.358Z,24.69
2019-01-30T15:58:01.385Z,24.80
2019-01-30T15:59:54.340Z,24.80
2019-01-30T16:00:54.358Z,24.71
2019-01-30T16:02:47.803Z,24.88
2019-01-30T16:03:47.832Z,24.88
2019-01-30T16:05:45.008Z,25.27
2019-01-30T16:06:40.807Z,25.09
2019-01-30T16:08:33.760Z,25.08
2019-01-30T16:09:33.778Z,25.08
2019-01-30T16:11:26.719Z,25.08
2019-01-30T16:12:26.748Z,25.08
2019-01-30T16:14:19.705Z,25.08
2019-01-30T16:15:19.727Z,25.46
2019-01-30T16:17:12.671Z,24.21
2019-01-30T16:18:12.700Z,23.82
2019-01-30T16:20:05.654Z,23.54
2019-01-30T16:21:05.674Z,23.63
2019-01-30T16:22:58.616Z,23.72
2019-01-30T16:23:58.642Z,23.82
2019-01-30T16:25:51.599Z,23.82
2019-01-30T16:26:51.618Z,23.92
2019-01-30T16:28:44.573Z,23.83
2019-01-30T16:29:44.594Z,24.03
2019-01-30T16:31:37.537Z,24.02
2019-01-30T16:32:37.570Z,23.83
2019-01-30T16:34:30.523Z,23.74
2019-01-30T16:35:30.542Z,24.41
2019-01-30T16:37:23.487Z,23.93
2019-01-30T16:38:23.516Z,24.32
2019-01-30T16:40:16.469Z,24.22
2019-01-30T16:41:16.490Z,24.22
2019-01-30T16:43:09.434Z,24.41
2019-01-30T16:44:09.464Z,24.80
2019-01-30T16:46:02.418Z,24.90
2019-01-30T16:47:02.439Z,24.80
2019-01-30T16:48:55.441Z,24.41
2019-01-30T16:49:55.461Z,24.41
2019-01-30T16:51:48.409Z,24.71
2019-01-30T16:52:48.438Z,24.71
2019-01-30T16:54:41.390Z,24.80
2019-01-30T16:55:41.408Z,24.80
2019-01-30T16:57:34.353Z,24.71
2019-01-30T16:58:34.386Z,24.99
2019-01-30T17:00:27.332Z,24.90
2019-01-30T17:01:27.361Z,24.90
2019-01-30T17:03:20.308Z,25.09
2019-01-30T17:04:20.404Z,25.09
2019-01-30T17:06:13.291Z,25.09
2019-01-30T17:07:13.314Z,25.28
2019-01-30T17:09:06.270Z,25.28
2019-01-30T17:10:06.290Z,25.57
2019-01-30T17:11:59.231Z,25.38
2019-01-30T17:12:59.258Z,25.48
2019-01-30T17:14:52.217Z,25.48
2019-01-30T17:15:52.235Z,25.38
2019-01-30T17:17:45.182Z,25.57
2019-01-30T17:18:45.213Z,25.28
2019-01-30T17:20:38.164Z,25.09
2019-01-30T17:21:38.186Z,25.19
2019-01-30T17:23:31.150Z,25.28
2019-01-30T17:24:31.159Z,25.38
2019-01-30T17:26:24.115Z,25.28
2019-01-30T17:27:24.130Z,25.28
2019-01-30T17:29:17.077Z,25.28
2019-01-30T17:30:17.105Z,25.48
2019-01-30T17:32:10.066Z,25.28
2019-01-30T17:33:10.079Z,25.38
2019-01-30T17:35:03.037Z,25.28
2019-01-30T17:36:03.054Z,25.57
2019-01-30T17:37:55.998Z,25.09
2019-01-30T17:38:56.030Z,25.10
2019-01-30T17:40:48.981Z,25.09
2019-01-30T17:41:48.998Z,25.09
2019-01-30T17:43:42.437Z,25.19
2019-01-30T17:44:42.463Z,25.28
2019-01-30T17:46:35.419Z,25.09
2019-01-30T17:47:35.442Z,25.28
2019-01-30T17:49:28.394Z,25.28
2019-01-30T17:50:28.413Z,25.09
2019-01-30T17:52:21.385Z,24.90
2019-01-30T17:53:21.403Z,25.10
2019-01-30T17:55:14.347Z,25.10
2019-01-30T17:56:14.381Z,25.29
2019-01-30T17:58:07.329Z,25.38
2019-01-30T17:59:07.356Z,25.39
2019-01-30T18:01:00.304Z,25.28
2019-01-30T18:02:00.364Z,25.28
2019-01-30T18:03:53.264Z,25.76
2019-01-30T18:04:53.295Z,25.48
2019-01-30T18:06:46.249Z,25.57
2019-01-30T18:07:46.269Z,25.59
2019-01-30T18:09:39.212Z,25.57
2019-01-30T18:10:39.241Z,25.78
2019-01-30T18:12:32.202Z,26.34
2019-01-30T18:13:32.223Z,26.15
2019-01-30T18:15:25.669Z,25.97
2019-01-30T18:16:26.951Z,25.97
2019-01-30T18:18:19.637Z,26.35
2019-01-30T18:19:19.665Z,26.07
2019-01-30T18:21:12.618Z,26.15
2019-01-30T18:22:12.640Z,26.15
2019-01-30T18:24:05.582Z,26.25
2019-01-30T18:25:05.612Z,26.06
2019-01-30T18:26:58.566Z,26.25
2019-01-30T18:27:58.590Z,26.25
2019-01-30T18:29:51.536Z,26.15
2019-01-30T18:30:51.563Z,26.25
2019-01-30T18:32:44.521Z,26.06
2019-01-30T18:33:44.539Z,26.54